createdAt,value
2022-08-17T00:01:16.731Z,100844.94
2022-08-17T00:06:39.569Z,100843.28
2022-08-17T00:12:35.081Z,100831.53
2022-08-17T00:17:46.251Z,100811.13
2022-08-17T00:23:13.082Z,100817.53
2022-08-17T00:28:35.209Z,100810.25
2022-08-17T00:33:58.652Z,100803.00
2022-08-17T00:39:20.460Z,100791.78
2022-08-17T00:44:42.343Z,100801.31
2022-08-17T00:50:07.278Z,100794.91
2022-08-17T00:55:29.020Z,100800.50
2022-08-17T01:00:51.505Z,100796.84
2022-08-17T01:06:14.604Z,100794.06
2022-08-17T01:11:37.338Z,100792.41
2022-08-17T01:17:00.461Z,100795.22
2022-08-17T01:22:26.074Z,100778.41
2022-08-17T01:27:48.903Z,100780.38
2022-08-17T01:33:11.668Z,100781.22
2022-08-17T01:38:35.857Z,100775.63
2022-08-17T01:44:01.577Z,100771.97
2022-08-17T01:49:23.493Z,100776.75
2022-08-17T01:54:47.591Z,100766.69
2022-08-17T02:00:10.899Z,100766.69
2022-08-17T02:05:33.024Z,100767.81
2022-08-17T02:10:55.203Z,100766.69
2022-08-17T02:16:17.482Z,100770.59
2022-08-17T02:21:40.580Z,100769.75
2022-08-17T02:27:02.294Z,100775.34
2022-08-17T02:32:27.916Z,100772.84
2022-08-17T02:37:51.936Z,100775.66
2022-08-17T02:43:17.765Z,100775.66
2022-08-17T02:48:40.148Z,100764.75
2022-08-17T02:54:38.963Z,100772.31
2022-08-17T02:59:48.839Z,100757.50
2022-08-17T03:05:13.296Z,100767.84
2022-08-17T03:10:35.048Z,100764.47
2022-08-17T03:15:56.909Z,100769.22
2022-08-17T03:21:18.609Z,100781.25
2022-08-17T03:26:40.330Z,100799.16
2022-08-17T03:32:11.866Z,100799.75
2022-08-17T03:37:33.766Z,100801.13
2022-08-17T03:42:55.488Z,100803.13
2022-08-17T03:48:35.666Z,100805.91
2022-08-17T03:54:17.744Z,100803.13
2022-08-17T03:59:41.013Z,100809.84
2022-08-17T04:05:02.860Z,100813.84
2022-08-17T04:10:26.487Z,100819.16
2022-08-17T04:15:49.357Z,100826.19
2022-08-17T04:21:11.115Z,100834.38
2022-08-17T04:26:52.697Z,100838.31
2022-08-17T04:32:14.492Z,100845.09
2022-08-17T04:37:36.187Z,100875.53
2022-08-17T04:43:03.110Z,100878.63
2022-08-17T04:48:36.295Z,100886.19
2022-08-17T04:54:09.440Z,100878.38
2022-08-17T04:59:31.143Z,100884.25
2022-08-17T05:04:52.852Z,100883.41
2022-08-17T05:10:17.436Z,100882.88
2022-08-17T05:15:44.970Z,100902.44
2022-08-17T05:21:09.300Z,100889.56
2022-08-17T05:26:30.984Z,100883.44
2022-08-17T05:31:52.651Z,100884.28
2022-08-17T05:37:14.461Z,100871.69
2022-08-17T05:42:36.428Z,100881.19
2022-08-17T05:47:58.152Z,100893.78
2022-08-17T05:53:40.035Z,100885.09
2022-08-17T05:59:48.328Z,100879.50
2022-08-17T06:05:18.118Z,100881.19
2022-08-17T06:11:04.339Z,100878.09
2022-08-17T06:16:34.035Z,100877.22
2022-08-17T06:21:56.718Z,100881.69
2022-08-17T06:27:36.544Z,100897.28
2022-08-17T06:33:06.230Z,100898.97
2022-08-17T06:38:58.049Z,100906.25
2022-08-17T06:44:50.613Z,100905.97
2022-08-17T06:50:29.146Z,100911.03
2022-08-17T06:56:00.052Z,100923.06
2022-08-17T07:01:27.053Z,100940.09
2022-08-17T07:06:57.337Z,100949.31
2022-08-17T07:12:24.525Z,100943.72
2022-08-17T07:17:50.053Z,100942.59
2022-08-17T07:23:38.797Z,100941.19
2022-08-17T07:29:02.505Z,100943.16
2022-08-17T07:34:24.187Z,100945.94
2022-08-17T07:40:04.463Z,100934.75
2022-08-17T07:45:53.224Z,100946.22
2022-08-17T07:51:19.145Z,100948.19
2022-08-17T07:56:53.972Z,100931.69
2022-08-17T08:02:31.722Z,100929.47
2022-08-17T08:08:18.625Z,100939.81
2022-08-17T08:13:45.289Z,100956.88
2022-08-17T08:19:08.460Z,100956.03
2022-08-17T08:25:02.637Z,100977.88
2022-08-17T08:30:24.318Z,100992.38
2022-08-17T08:35:55.160Z,101016.44
2022-08-17T08:41:43.287Z,101025.94
2022-08-17T08:47:05.264Z,101015.63
2022-08-17T08:52:48.308Z,101006.09
2022-08-17T08:58:31.854Z,101001.34
2022-08-17T09:04:24.607Z,100984.50
2022-08-17T09:10:08.497Z,101004.38
2022-08-17T09:15:51.138Z,101011.34
2022-08-17T09:21:33.651Z,101010.78
2022-08-17T09:27:11.935Z,101028.09
2022-08-17T09:32:44.403Z,101050.47
2022-08-17T09:38:21.405Z,101047.13
2022-08-17T09:44:27.917Z,101026.97
2022-08-17T09:50:09.580Z,101034.25
2022-08-17T09:55:44.964Z,101033.69
2022-08-17T10:01:22.683Z,101020.22
2022-08-17T10:07:12.936Z,101023.88
2022-08-17T10:13:03.408Z,101020.22
2022-08-17T10:18:59.863Z,101021.38
2022-08-17T10:25:20.975Z,101007.94
2022-08-17T10:30:31.673Z,101009.63
2022-08-17T10:36:12.034Z,101007.38
2022-08-17T10:41:44.922Z,101009.03
2022-08-17T10:47:14.557Z,101028.34
2022-08-17T10:52:42.544Z,101010.69
2022-08-17T10:58:24.640Z,101026.66
2022-08-17T11:03:53.655Z,101022.19
2022-08-17T11:09:30.495Z,101023.00
2022-08-17T11:15:16.232Z,101039.81
2022-08-17T11:20:46.912Z,101048.78
2022-08-17T11:26:30.714Z,101044.88
2022-08-17T11:32:34.081Z,101047.13
2022-08-17T11:38:16.286Z,101056.06
2022-08-17T11:44:04.047Z,101082.38
2022-08-17T11:50:16.701Z,101085.16
2022-08-17T11:55:43.016Z,101075.09
2022-08-17T12:01:26.951Z,101076.78
2022-08-17T12:06:52.361Z,101090.75
2022-08-17T12:12:22.904Z,101080.41
2022-08-17T12:17:54.613Z,101086.84
2022-08-17T12:23:20.894Z,101089.91
2022-08-17T12:28:47.506Z,101087.97
2022-08-17T12:34:18.636Z,101085.44
2022-08-17T12:39:52.581Z,101082.38
2022-08-17T12:45:36.905Z,101075.34
2022-08-17T12:51:01.551Z,101086.53
2022-08-17T12:56:23.425Z,101080.13
2022-08-17T13:01:46.308Z,101070.59
2022-08-17T13:07:08.095Z,101064.44
2022-08-17T13:12:36.006Z,101079.00
2022-08-17T13:18:06.408Z,101079.84
2022-08-17T13:23:32.434Z,101077.31
2022-08-17T13:28:54.666Z,101079.56
2022-08-17T13:34:18.160Z,101079.56
2022-08-17T13:39:44.723Z,101069.47
2022-08-17T13:45:35.601Z,101077.34
2022-08-17T13:50:58.678Z,101073.97
2022-08-17T13:56:37.892Z,101066.41
2022-08-17T14:02:01.187Z,101069.75
2022-08-17T14:07:30.538Z,101065.03
2022-08-17T14:12:52.966Z,101059.72
2022-08-17T14:18:14.729Z,101057.75
2022-08-17T14:23:37.281Z,101050.47
2022-08-17T14:28:58.938Z,101051.03
2022-08-17T14:34:24.182Z,101047.94
2022-08-17T14:39:45.965Z,101050.47
2022-08-17T14:45:32.101Z,101066.13
2022-08-17T14:50:52.344Z,101070.59
2022-08-17T14:56:14.110Z,101070.00
2022-08-17T15:01:37.017Z,101071.69
2022-08-17T15:06:59.033Z,101065.50
2022-08-17T15:12:27.493Z,101063.56
2022-08-17T15:17:53.922Z,101047.28
2022-08-17T15:23:18.860Z,101059.34
2022-08-17T15:28:40.584Z,101043.38
2022-08-17T15:34:05.383Z,101036.94
2022-08-17T15:39:29.781Z,101031.06
2022-08-17T15:44:53.171Z,101030.50
2022-08-17T15:50:14.892Z,101026.84
2022-08-17T15:55:38.471Z,101011.72
2022-08-17T16:01:16.671Z,101015.06
2022-08-17T16:06:40.841Z,101005.84
2022-08-17T16:12:20.885Z,101009.19
2022-08-17T16:17:42.763Z,101019.53
2022-08-17T16:23:04.838Z,101008.06
2022-08-17T16:28:36.340Z,101017.59
2022-08-17T16:34:17.354Z,101037.72
2022-08-17T16:39:40.668Z,101040.81
2022-08-17T16:45:10.738Z,101051.19
2022-08-17T16:50:33.971Z,101048.66
2022-08-17T16:55:57.169Z,101074.16
2022-08-17T17:01:20.384Z,101073.31
2022-08-17T17:07:14.567Z,101081.19
2022-08-17T17:13:03.236Z,101087.03
2022-08-17T17:18:43.640Z,101082.88
2022-08-17T17:24:13.783Z,101088.75
2022-08-17T17:29:56.808Z,101090.69
2022-08-17T17:35:53.997Z,101096.59
2022-08-17T17:41:27.397Z,101089.06
2022-08-17T17:46:57.059Z,101086.53
2022-08-17T17:52:45.439Z,101076.75
2022-08-17T17:58:21.260Z,101088.53
2022-08-17T18:04:01.453Z,101081.25
2022-08-17T18:10:01.180Z,101075.34
2022-08-17T18:15:29.754Z,101076.78
2022-08-17T18:20:56.230Z,101076.22
2022-08-17T18:26:33.076Z,101073.41
2022-08-17T18:32:23.055Z,101075.72
2022-08-17T18:37:48.579Z,101087.50
2022-08-17T18:43:14.377Z,101107.94
2022-08-17T18:48:53.657Z,101097.28
2022-08-17T18:54:24.898Z,101101.50
2022-08-17T18:59:48.431Z,101119.41
2022-08-17T19:05:39.713Z,101130.03
2022-08-17T19:11:05.690Z,101124.44
2022-08-17T19:16:35.120Z,101122.75
2022-08-17T19:22:07.032Z,101126.66
2022-08-17T19:27:52.270Z,101140.09
2022-08-17T19:33:19.574Z,101156.59
2022-08-17T19:39:18.537Z,101157.41
2022-08-17T19:44:49.088Z,101158.53
2022-08-17T19:50:15.946Z,101168.59
2022-08-17T19:55:55.322Z,101170.56
2022-08-17T20:01:29.909Z,101182.00
2022-08-17T20:07:06.885Z,101187.59
2022-08-17T20:12:36.023Z,101177.53
2022-08-17T20:18:03.058Z,101196.56
2022-08-17T20:23:36.474Z,101202.69
2022-08-17T20:29:06.346Z,101190.97
2022-08-17T20:34:30.945Z,101192.66
2022-08-17T20:39:59.357Z,101198.22
2022-08-17T20:45:20.960Z,101199.06
2022-08-17T20:50:52.280Z,101203.53
2022-08-17T20:56:45.151Z,101202.44
2022-08-17T21:02:17.600Z,101209.41
2022-08-17T21:07:54.346Z,101207.75
2022-08-17T21:13:16.166Z,101216.69
2022-08-17T21:19:16.984Z,101214.75
2022-08-17T21:25:01.723Z,101209.66
2022-08-17T21:31:09.105Z,101222.00
2022-08-17T21:36:31.539Z,101225.63
2022-08-17T21:41:55.900Z,101245.19
2022-08-17T21:47:24.743Z,101232.91
2022-08-17T21:52:47.880Z,101234.88
2022-08-17T21:58:29.012Z,101209.41
2022-08-17T22:04:19.427Z,101204.13
2022-08-17T22:09:47.932Z,101202.16
2022-08-17T22:15:16.030Z,101193.19
2022-08-17T22:20:38.583Z,101189.56
2022-08-17T22:26:06.227Z,101184.81
2022-08-17T22:31:55.206Z,101196.28
2022-08-17T22:37:28.723Z,101201.00
2022-08-17T22:42:50.460Z,101192.63
2022-08-17T22:48:16.756Z,101194.59
2022-08-17T22:54:05.280Z,101192.88
2022-08-17T22:59:41.976Z,101213.34
2022-08-17T23:05:18.965Z,101208.84
2022-08-17T23:10:42.815Z,101199.88
2022-08-17T23:16:04.766Z,101198.19
2022-08-17T23:21:29.852Z,101215.81
2022-08-17T23:26:52.456Z,101222.78
2022-08-17T23:32:16.188Z,101218.03
2022-08-17T23:37:38.025Z,101209.94
2022-08-17T23:42:59.750Z,101209.94
2022-08-17T23:48:35.044Z,101211.03
2022-08-17T23:54:08.200Z,101208.25
2022-08-17T23:59:30.572Z,101215.81
